Overview Statistics Trail Chart Weather Telemetry Raw packets
 

This is the latest recevied weather packets stored in our database for station/object SR8WXL-13. If no packets are shown the sender has not sent any weather packets the latest 10 day(s).

<< 11 12 13 14 15 16 17 >>
Time Temp. Humidity Pressure Rain* Wind** Luminosity Snow
1788396498 12.78° C 91% 1034 hPa 0 mm - - -
1788395593 12.22° C 90% 1034.4 hPa 0 mm - - -
1788394868 12.78° C 91% 1034.4 hPa 0 mm - - -
1788394119 12.78° C 91% 1034.5 hPa 0 mm - - -
1788393238 11.11° C 93% 1034.6 hPa 0 mm - - -
1788392343 12.22° C 92% 1034.6 hPa 0 mm - - -
1788391577 12.78° C 90% 1034.5 hPa 0 mm - - -
1788390749 12.22° C 94% 1034.8 hPa 0 mm - - -
1788389929 11.11° C 94% 1034.5 hPa 0 mm - - -
1788389131 11.11° C 94% 1034.5 hPa 0 mm - - -
1788388278 12.22° C 93% 1034.4 hPa 0 mm - - -
1788387544 12.22° C 93% 1034.9 hPa 0 mm - - -
1788386648 12.22° C 92% 1034.7 hPa 0 mm - - -
1788385774 12.22° C 92% 1034.9 hPa 0 mm - - -
1788384983 12.78° C 90% 1035 hPa 0 mm - - -
1788384169 12.78° C 90% 1034.8 hPa 0 mm - - -
1788383368 12.78° C 91% 1034.8 hPa 0 mm - - -
1788382489 12.78° C 91% 1034.8 hPa 0 mm - - -
1788381664 12.78° C 91% 1034.6 hPa 0 mm - - -
1788380925 12.78° C 90% 1034.5 hPa 0 mm - - -
1788380193 13.89° C 89% 1034.7 hPa 0 mm - - -
1788379325 13.89° C 89% 1035 hPa 0 mm - - -
1788378463 13.89° C 88% 1034.7 hPa 0 mm - - -
1788377741 15° C 85% 1034.6 hPa 0 mm - - -
1788376964 15° C 83% 1034.9 hPa 0 mm - - -

* Rain latest hour (hover to see other rain measurements)
** Current wind speed in m/s (hover to see current wind gust speed)